Terminal Aerodrome Forecast
Issued by NWS

Home | Current Version | Previous Version | Text Only | Print | Product List | Glossary On
Versions: 1 2 3 4 5 6 7 8 9 10 11 12 13 14 15 16 17 18 19 20 21 22 23 24 25 26 27 28 29 30 31 32 33 34 35 36 37 38 39 40 41
000
FTAK31 PANC 252324
TAFACD
TAF
PACD 252324Z 2600/2624 28016KT 6SM BR OVC004
     FM260900 29013KT 5SM BR OVC003
     FM261800 31012KT P6SM FEW003 OVC010=

USA.gov is the U.S. government's official web portal to all federal, state and local government web resources and services.